sensor_id;sensor_type;location;lat;lon;timestamp;P1;P2;P0
33431;PMS5003;35187;31.882;34.828;2023-07-20T00:01:09;8;7;
33431;PMS5003;35187;31.882;34.828;2023-07-20T00:03:38;9;7;
33431;PMS5003;35187;31.882;34.828;2023-07-20T00:06:07;7;6;
33431;PMS5003;35187;31.882;34.828;2023-07-20T00:08:36;6;5;
33431;PMS5003;35187;31.882;34.828;2023-07-20T00:11:05;5;5;
33431;PMS5003;35187;31.882;34.828;2023-07-20T00:13:33;6;6;
33431;PMS5003;35187;31.882;34.828;2023-07-20T00:16:02;7;6;
33431;PMS5003;35187;31.882;34.828;2023-07-20T00:18:31;8;8;
33431;PMS5003;35187;31.882;34.828;2023-07-20T00:21:00;8;8;
33431;PMS5003;35187;31.882;34.828;2023-07-20T00:23:29;7;6;
33431;PMS5003;35187;31.882;34.828;2023-07-20T00:25:58;9;8;
33431;PMS5003;35187;31.882;34.828;2023-07-20T00:28:27;8;7;
33431;PMS5003;35187;31.882;34.828;2023-07-20T00:30:55;9;8;
33431;PMS5003;35187;31.882;34.828;2023-07-20T00:33:24;7;7;
33431;PMS5003;35187;31.882;34.828;2023-07-20T00:35:53;8;8;
33431;PMS5003;35187;31.882;34.828;2023-07-20T00:38:22;7;7;
33431;PMS5003;35187;31.882;34.828;2023-07-20T00:40:50;8;7;
33431;PMS5003;35187;31.882;34.828;2023-07-20T00:43:19;7;6;
33431;PMS5003;35187;31.882;34.828;2023-07-20T00:45:48;7;7;
33431;PMS5003;35187;31.882;34.828;2023-07-20T00:48:17;7;7;
33431;PMS5003;35187;31.882;34.828;2023-07-20T00:50:47;6;6;
33431;PMS5003;35187;31.882;34.828;2023-07-20T00:53:16;7;7;
33431;PMS5003;35187;31.882;34.828;2023-07-20T00:55:45;8;8;
33431;PMS5003;35187;31.882;34.828;2023-07-20T00:58:14;7;7;
33431;PMS5003;35187;31.882;34.828;2023-07-20T01:00:44;10;9;
33431;PMS5003;35187;31.882;34.828;2023-07-20T01:03:13;8;8;
33431;PMS5003;35187;31.882;34.828;2023-07-20T01:05:44;7;7;
33431;PMS5003;35187;31.882;34.828;2023-07-20T01:08:21;7;7;
33431;PMS5003;35187;31.882;34.828;2023-07-20T01:11:01;7;7;
33431;PMS5003;35187;31.882;34.828;2023-07-20T01:13:40;8;8;
33431;PMS5003;35187;31.882;34.828;2023-07-20T01:16:10;8;7;
33431;PMS5003;35187;31.882;34.828;2023-07-20T01:18:39;8;8;
33431;PMS5003;35187;31.882;34.828;2023-07-20T01:21:09;7;7;
33431;PMS5003;35187;31.882;34.828;2023-07-20T01:23:50;8;8;
33431;PMS5003;35187;31.882;34.828;2023-07-20T01:26:37;8;8;
33431;PMS5003;35187;31.882;34.828;2023-07-20T01:29:31;8;7;
33431;PMS5003;35187;31.882;34.828;2023-07-20T01:32:14;9;8;
33431;PMS5003;35187;31.882;34.828;2023-07-20T01:34:45;8;8;
33431;PMS5003;35187;31.882;34.828;2023-07-20T01:37:17;9;9;
33431;PMS5003;35187;31.882;34.828;2023-07-20T01:39:48;9;8;
33431;PMS5003;35187;31.882;34.828;2023-07-20T01:42:18;8;8;
33431;PMS5003;35187;31.882;34.828;2023-07-20T01:44:47;9;8;
33431;PMS5003;35187;31.882;34.828;2023-07-20T01:47:18;9;8;
33431;PMS5003;35187;31.882;34.828;2023-07-20T01:49:47;6;6;
33431;PMS5003;35187;31.882;34.828;2023-07-20T01:52:16;9;7;
33431;PMS5003;35187;31.882;34.828;2023-07-20T01:54:44;8;8;
33431;PMS5003;35187;31.882;34.828;2023-07-20T01:57:13;7;7;
33431;PMS5003;35187;31.882;34.828;2023-07-20T01:59:42;8;7;
33431;PMS5003;35187;31.882;34.828;2023-07-20T02:02:11;8;7;
33431;PMS5003;35187;31.882;34.828;2023-07-20T02:04:40;9;9;
33431;PMS5003;35187;31.882;34.828;2023-07-20T02:07:08;9;8;
33431;PMS5003;35187;31.882;34.828;2023-07-20T02:09:37;9;8;
33431;PMS5003;35187;31.882;34.828;2023-07-20T02:12:06;8;8;
33431;PMS5003;35187;31.882;34.828;2023-07-20T02:14:35;7;7;
33431;PMS5003;35187;31.882;34.828;2023-07-20T02:17:04;9;7;
33431;PMS5003;35187;31.882;34.828;2023-07-20T02:19:33;8;7;
33431;PMS5003;35187;31.882;34.828;2023-07-20T02:22:02;7;7;
33431;PMS5003;35187;31.882;34.828;2023-07-20T02:24:32;8;8;
33431;PMS5003;35187;31.882;34.828;2023-07-20T02:27:01;7;7;
33431;PMS5003;35187;31.882;34.828;2023-07-20T02:29:29;6;6;
33431;PMS5003;35187;31.882;34.828;2023-07-20T02:31:58;9;7;
33431;PMS5003;35187;31.882;34.828;2023-07-20T02:34:27;7;7;
33431;PMS5003;35187;31.882;34.828;2023-07-20T02:36:56;9;8;
33431;PMS5003;35187;31.882;34.828;2023-07-20T02:39:25;8;8;
33431;PMS5003;35187;31.882;34.828;2023-07-20T02:41:55;9;9;
33431;PMS5003;35187;31.882;34.828;2023-07-20T02:44:24;7;7;
33431;PMS5003;35187;31.882;34.828;2023-07-20T02:46:53;10;9;
33431;PMS5003;35187;31.882;34.828;2023-07-20T02:49:21;7;7;
33431;PMS5003;35187;31.882;34.828;2023-07-20T02:51:50;8;8;
33431;PMS5003;35187;31.882;34.828;2023-07-20T02:54:19;8;7;
33431;PMS5003;35187;31.882;34.828;2023-07-20T02:56:48;7;7;
33431;PMS5003;35187;31.882;34.828;2023-07-20T02:59:17;8;8;
33431;PMS5003;35187;31.882;34.828;2023-07-20T03:01:46;8;7;
33431;PMS5003;35187;31.882;34.828;2023-07-20T03:04:15;7;7;
33431;PMS5003;35187;31.882;34.828;2023-07-20T03:06:44;8;8;
33431;PMS5003;35187;31.882;34.828;2023-07-20T03:09:13;8;8;
33431;PMS5003;35187;31.882;34.828;2023-07-20T03:11:41;6;6;
33431;PMS5003;35187;31.882;34.828;2023-07-20T03:14:10;6;6;
33431;PMS5003;35187;31.882;34.828;2023-07-20T03:16:39;9;9;
33431;PMS5003;35187;31.882;34.828;2023-07-20T03:19:07;6;6;
33431;PMS5003;35187;31.882;34.828;2023-07-20T03:21:36;6;6;
33431;PMS5003;35187;31.882;34.828;2023-07-20T03:24:05;7;7;
33431;PMS5003;35187;31.882;34.828;2023-07-20T03:26:34;8;8;
33431;PMS5003;35187;31.882;34.828;2023-07-20T03:29:03;8;8;
33431;PMS5003;35187;31.882;34.828;2023-07-20T03:31:32;7;7;
33431;PMS5003;35187;31.882;34.828;2023-07-20T03:34:01;10;9;
33431;PMS5003;35187;31.882;34.828;2023-07-20T03:36:30;7;7;
33431;PMS5003;35187;31.882;34.828;2023-07-20T03:38:59;8;8;
33431;PMS5003;35187;31.882;34.828;2023-07-20T03:41:28;8;7;
33431;PMS5003;35187;31.882;34.828;2023-07-20T03:43:57;6;6;
33431;PMS5003;35187;31.882;34.828;2023-07-20T03:46:26;8;8;
33431;PMS5003;35187;31.882;34.828;2023-07-20T03:48:54;8;8;
33431;PMS5003;35187;31.882;34.828;2023-07-20T03:51:23;7;6;
33431;PMS5003;35187;31.882;34.828;2023-07-20T03:53:52;7;7;
33431;PMS5003;35187;31.882;34.828;2023-07-20T03:56:21;10;9;
33431;PMS5003;35187;31.882;34.828;2023-07-20T03:58:49;10;9;
33431;PMS5003;35187;31.882;34.828;2023-07-20T04:01:18;5;5;
33431;PMS5003;35187;31.882;34.828;2023-07-20T04:03:47;7;6;
33431;PMS5003;35187;31.882;34.828;2023-07-20T04:06:16;7;7;
33431;PMS5003;35187;31.882;34.828;2023-07-20T04:08:44;9;8;
33431;PMS5003;35187;31.882;34.828;2023-07-20T04:11:13;5;5;
33431;PMS5003;35187;31.882;34.828;2023-07-20T04:13:42;8;7;
33431;PMS5003;35187;31.882;34.828;2023-07-20T04:16:11;7;7;
33431;PMS5003;35187;31.882;34.828;2023-07-20T04:18:40;8;8;
33431;PMS5003;35187;31.882;34.828;2023-07-20T04:21:08;7;7;
33431;PMS5003;35187;31.882;34.828;2023-07-20T04:23:37;8;8;
33431;PMS5003;35187;31.882;34.828;2023-07-20T04:26:06;7;7;
33431;PMS5003;35187;31.882;34.828;2023-07-20T04:28:35;8;8;
33431;PMS5003;35187;31.882;34.828;2023-07-20T04:31:11;8;7;
33431;PMS5003;35187;31.882;34.828;2023-07-20T04:33:41;6;6;
33431;PMS5003;35187;31.882;34.828;2023-07-20T04:36:09;10;10;
33431;PMS5003;35187;31.882;34.828;2023-07-20T04:38:38;10;9;
33431;PMS5003;35187;31.882;34.828;2023-07-20T04:41:07;7;6;
33431;PMS5003;35187;31.882;34.828;2023-07-20T04:43:36;7;7;
33431;PMS5003;35187;31.882;34.828;2023-07-20T04:46:08;8;8;
33431;PMS5003;35187;31.882;34.828;2023-07-20T04:48:37;7;7;
33431;PMS5003;35187;31.882;34.828;2023-07-20T04:51:06;9;9;
33431;PMS5003;35187;31.882;34.828;2023-07-20T04:53:35;7;6;
33431;PMS5003;35187;31.882;34.828;2023-07-20T04:56:04;9;8;
33431;PMS5003;35187;31.882;34.828;2023-07-20T04:58:33;9;8;
33431;PMS5003;35187;31.882;34.828;2023-07-20T05:01:01;7;7;
33431;PMS5003;35187;31.882;34.828;2023-07-20T05:03:30;7;7;
33431;PMS5003;35187;31.882;34.828;2023-07-20T05:05:59;10;8;
33431;PMS5003;35187;31.882;34.828;2023-07-20T05:08:28;8;8;
33431;PMS5003;35187;31.882;34.828;2023-07-20T05:10:57;8;8;
33431;PMS5003;35187;31.882;34.828;2023-07-20T05:13:27;9;9;
33431;PMS5003;35187;31.882;34.828;2023-07-20T05:15:56;7;6;
33431;PMS5003;35187;31.882;34.828;2023-07-20T05:18:25;9;9;
33431;PMS5003;35187;31.882;34.828;2023-07-20T05:20:53;9;9;
33431;PMS5003;35187;31.882;34.828;2023-07-20T05:23:22;9;9;
33431;PMS5003;35187;31.882;34.828;2023-07-20T05:25:54;12;11;
33431;PMS5003;35187;31.882;34.828;2023-07-20T05:28:23;9;9;
33431;PMS5003;35187;31.882;34.828;2023-07-20T05:30:51;9;9;
33431;PMS5003;35187;31.882;34.828;2023-07-20T05:33:21;6;6;
33431;PMS5003;35187;31.882;34.828;2023-07-20T05:35:50;7;7;
33431;PMS5003;35187;31.882;34.828;2023-07-20T05:38:18;10;9;
33431;PMS5003;35187;31.882;34.828;2023-07-20T05:40:47;11;10;
33431;PMS5003;35187;31.882;34.828;2023-07-20T05:43:16;10;9;
33431;PMS5003;35187;31.882;34.828;2023-07-20T05:45:45;9;8;
33431;PMS5003;35187;31.882;34.828;2023-07-20T05:48:13;10;10;
33431;PMS5003;35187;31.882;34.828;2023-07-20T05:50:42;13;11;
33431;PMS5003;35187;31.882;34.828;2023-07-20T05:53:11;11;9;
33431;PMS5003;35187;31.882;34.828;2023-07-20T05:55:40;10;8;
33431;PMS5003;35187;31.882;34.828;2023-07-20T05:58:09;10;9;
33431;PMS5003;35187;31.882;34.828;2023-07-20T06:00:38;8;8;
33431;PMS5003;35187;31.882;34.828;2023-07-20T06:03:07;12;11;
33431;PMS5003;35187;31.882;34.828;2023-07-20T06:05:35;12;12;
33431;PMS5003;35187;31.882;34.828;2023-07-20T06:08:04;12;12;
33431;PMS5003;35187;31.882;34.828;2023-07-20T06:10:33;11;11;
33431;PMS5003;35187;31.882;34.828;2023-07-20T06:13:02;12;11;
33431;PMS5003;35187;31.882;34.828;2023-07-20T06:15:31;12;12;
33431;PMS5003;35187;31.882;34.828;2023-07-20T06:18:01;15;14;
33431;PMS5003;35187;31.882;34.828;2023-07-20T06:20:30;17;15;
33431;PMS5003;35187;31.882;34.828;2023-07-20T06:22:59;12;12;
33431;PMS5003;35187;31.882;34.828;2023-07-20T06:25:27;10;10;
33431;PMS5003;35187;31.882;34.828;2023-07-20T06:27:56;11;10;
33431;PMS5003;35187;31.882;34.828;2023-07-20T06:30:25;12;12;
33431;PMS5003;35187;31.882;34.828;2023-07-20T06:32:54;10;10;
33431;PMS5003;35187;31.882;34.828;2023-07-20T06:35:23;12;12;
33431;PMS5003;35187;31.882;34.828;2023-07-20T06:37:51;11;10;
33431;PMS5003;35187;31.882;34.828;2023-07-20T06:40:20;13;12;
33431;PMS5003;35187;31.882;34.828;2023-07-20T06:42:49;13;12;
33431;PMS5003;35187;31.882;34.828;2023-07-20T06:45:18;13;12;
33431;PMS5003;35187;31.882;34.828;2023-07-20T06:47:47;11;10;
33431;PMS5003;35187;31.882;34.828;2023-07-20T06:50:16;13;12;
33431;PMS5003;35187;31.882;34.828;2023-07-20T06:52:45;15;14;
33431;PMS5003;35187;31.882;34.828;2023-07-20T06:55:14;11;10;
33431;PMS5003;35187;31.882;34.828;2023-07-20T06:57:43;12;11;
33431;PMS5003;35187;31.882;34.828;2023-07-20T07:00:12;15;14;
33431;PMS5003;35187;31.882;34.828;2023-07-20T07:02:41;15;13;
33431;PMS5003;35187;31.882;34.828;2023-07-20T07:05:10;13;12;
33431;PMS5003;35187;31.882;34.828;2023-07-20T07:07:39;10;10;
33431;PMS5003;35187;31.882;34.828;2023-07-20T07:10:08;13;12;
33431;PMS5003;35187;31.882;34.828;2023-07-20T07:12:37;13;10;
33431;PMS5003;35187;31.882;34.828;2023-07-20T07:15:06;12;11;
33431;PMS5003;35187;31.882;34.828;2023-07-20T07:17:36;12;11;
33431;PMS5003;35187;31.882;34.828;2023-07-20T07:20:05;10;10;
33431;PMS5003;35187;31.882;34.828;2023-07-20T07:22:35;13;12;
33431;PMS5003;35187;31.882;34.828;2023-07-20T07:25:04;15;14;
33431;PMS5003;35187;31.882;34.828;2023-07-20T07:27:33;12;12;
33431;PMS5003;35187;31.882;34.828;2023-07-20T07:30:02;15;13;
33431;PMS5003;35187;31.882;34.828;2023-07-20T07:32:32;11;11;
33431;PMS5003;35187;31.882;34.828;2023-07-20T07:35:01;12;11;
33431;PMS5003;35187;31.882;34.828;2023-07-20T07:37:30;11;10;
33431;PMS5003;35187;31.882;34.828;2023-07-20T07:39:59;11;10;
33431;PMS5003;35187;31.882;34.828;2023-07-20T07:42:28;11;11;
33431;PMS5003;35187;31.882;34.828;2023-07-20T07:44:57;12;11;
33431;PMS5003;35187;31.882;34.828;2023-07-20T07:47:26;14;12;
33431;PMS5003;35187;31.882;34.828;2023-07-20T07:49:55;13;13;
33431;PMS5003;35187;31.882;34.828;2023-07-20T07:52:24;11;11;
33431;PMS5003;35187;31.882;34.828;2023-07-20T07:54:52;10;10;
33431;PMS5003;35187;31.882;34.828;2023-07-20T07:57:21;18;16;
33431;PMS5003;35187;31.882;34.828;2023-07-20T07:59:50;12;12;
33431;PMS5003;35187;31.882;34.828;2023-07-20T08:02:19;13;13;
33431;PMS5003;35187;31.882;34.828;2023-07-20T08:04:47;12;12;
33431;PMS5003;35187;31.882;34.828;2023-07-20T08:07:16;14;14;
33431;PMS5003;35187;31.882;34.828;2023-07-20T08:09:45;14;13;
33431;PMS5003;35187;31.882;34.828;2023-07-20T08:12:14;14;13;
33431;PMS5003;35187;31.882;34.828;2023-07-20T08:14:43;15;14;
33431;PMS5003;35187;31.882;34.828;2023-07-20T08:17:12;13;13;
33431;PMS5003;35187;31.882;34.828;2023-07-20T08:19:41;13;12;
33431;PMS5003;35187;31.882;34.828;2023-07-20T08:22:09;14;13;
33431;PMS5003;35187;31.882;34.828;2023-07-20T08:24:39;13;13;
33431;PMS5003;35187;31.882;34.828;2023-07-20T08:27:08;13;13;
33431;PMS5003;35187;31.882;34.828;2023-07-20T08:29:38;12;12;
33431;PMS5003;35187;31.882;34.828;2023-07-20T08:32:07;14;14;
33431;PMS5003;35187;31.882;34.828;2023-07-20T08:34:36;13;13;
33431;PMS5003;35187;31.882;34.828;2023-07-20T08:37:05;15;13;
33431;PMS5003;35187;31.882;34.828;2023-07-20T08:39:34;11;11;
33431;PMS5003;35187;31.882;34.828;2023-07-20T08:42:02;12;11;
33431;PMS5003;35187;31.882;34.828;2023-07-20T08:44:33;11;11;
33431;PMS5003;35187;31.882;34.828;2023-07-20T08:47:03;12;12;
33431;PMS5003;35187;31.882;34.828;2023-07-20T08:49:34;16;14;
33431;PMS5003;35187;31.882;34.828;2023-07-20T08:52:07;16;14;
33431;PMS5003;35187;31.882;34.828;2023-07-20T08:54:36;16;12;
33431;PMS5003;35187;31.882;34.828;2023-07-20T08:57:05;16;15;
33431;PMS5003;35187;31.882;34.828;2023-07-20T08:59:34;14;13;
33431;PMS5003;35187;31.882;34.828;2023-07-20T09:02:05;16;14;
33431;PMS5003;35187;31.882;34.828;2023-07-20T09:04:40;14;13;
33431;PMS5003;35187;31.882;34.828;2023-07-20T09:07:09;14;13;
33431;PMS5003;35187;31.882;34.828;2023-07-20T09:09:39;12;12;
33431;PMS5003;35187;31.882;34.828;2023-07-20T09:12:12;13;12;
33431;PMS5003;35187;31.882;34.828;2023-07-20T09:14:42;14;12;
33431;PMS5003;35187;31.882;34.828;2023-07-20T09:17:13;15;14;
33431;PMS5003;35187;31.882;34.828;2023-07-20T09:19:46;17;13;
33431;PMS5003;35187;31.882;34.828;2023-07-20T09:22:15;15;15;
33431;PMS5003;35187;31.882;34.828;2023-07-20T09:24:43;17;15;
33431;PMS5003;35187;31.882;34.828;2023-07-20T09:27:12;19;18;
33431;PMS5003;35187;31.882;34.828;2023-07-20T09:29:47;18;16;
33431;PMS5003;35187;31.882;34.828;2023-07-20T09:32:18;19;18;
33431;PMS5003;35187;31.882;34.828;2023-07-20T09:34:49;17;17;
33431;PMS5003;35187;31.882;34.828;2023-07-20T09:37:20;17;17;
33431;PMS5003;35187;31.882;34.828;2023-07-20T09:39:51;17;17;
33431;PMS5003;35187;31.882;34.828;2023-07-20T09:42:21;20;19;
33431;PMS5003;35187;31.882;34.828;2023-07-20T09:44:50;20;19;
33431;PMS5003;35187;31.882;34.828;2023-07-20T09:47:22;15;15;
33431;PMS5003;35187;31.882;34.828;2023-07-20T09:49:57;19;19;
33431;PMS5003;35187;31.882;34.828;2023-07-20T09:52:27;21;18;
33431;PMS5003;35187;31.882;34.828;2023-07-20T09:54:57;24;22;
33431;PMS5003;35187;31.882;34.828;2023-07-20T09:57:26;15;14;
33431;PMS5003;35187;31.882;34.828;2023-07-20T09:59:55;18;17;
33431;PMS5003;35187;31.882;34.828;2023-07-20T10:02:25;17;17;
33431;PMS5003;35187;31.882;34.828;2023-07-20T10:04:58;19;19;
33431;PMS5003;35187;31.882;34.828;2023-07-20T10:07:31;22;20;
33431;PMS5003;35187;31.882;34.828;2023-07-20T10:10:03;24;23;
33431;PMS5003;35187;31.882;34.828;2023-07-20T10:12:34;16;15;
33431;PMS5003;35187;31.882;34.828;2023-07-20T10:15:07;18;18;
33431;PMS5003;35187;31.882;34.828;2023-07-20T10:17:42;22;21;
33431;PMS5003;35187;31.882;34.828;2023-07-20T10:20:24;24;22;
33431;PMS5003;35187;31.882;34.828;2023-07-20T10:22:55;22;21;
33431;PMS5003;35187;31.882;34.828;2023-07-20T10:25:24;21;21;
33431;PMS5003;35187;31.882;34.828;2023-07-20T10:27:54;16;15;
33431;PMS5003;35187;31.882;34.828;2023-07-20T10:30:24;23;22;
33431;PMS5003;35187;31.882;34.828;2023-07-20T10:32:54;20;19;
33431;PMS5003;35187;31.882;34.828;2023-07-20T10:35:23;20;20;
33431;PMS5003;35187;31.882;34.828;2023-07-20T10:37:52;19;19;
33431;PMS5003;35187;31.882;34.828;2023-07-20T10:40:24;20;18;
33431;PMS5003;35187;31.882;34.828;2023-07-20T10:42:58;18;17;
33431;PMS5003;35187;31.882;34.828;2023-07-20T10:45:33;19;17;
33431;PMS5003;35187;31.882;34.828;2023-07-20T10:48:03;17;14;
33431;PMS5003;35187;31.882;34.828;2023-07-20T10:50:32;19;19;
33431;PMS5003;35187;31.882;34.828;2023-07-20T10:53:05;17;17;
33431;PMS5003;35187;31.882;34.828;2023-07-20T10:55:39;16;16;
33431;PMS5003;35187;31.882;34.828;2023-07-20T10:58:09;19;17;
33431;PMS5003;35187;31.882;34.828;2023-07-20T11:00:54;18;17;
33431;PMS5003;35187;31.882;34.828;2023-07-20T11:03:28;18;17;
33431;PMS5003;35187;31.882;34.828;2023-07-20T11:05:58;19;15;
33431;PMS5003;35187;31.882;34.828;2023-07-20T11:08:57;18;17;
33431;PMS5003;35187;31.882;34.828;2023-07-20T11:11:33;16;16;
33431;PMS5003;35187;31.882;34.828;2023-07-20T11:14:04;19;17;
33431;PMS5003;35187;31.882;34.828;2023-07-20T11:16:34;19;19;
33431;PMS5003;35187;31.882;34.828;2023-07-20T11:19:05;13;13;
33431;PMS5003;35187;31.882;34.828;2023-07-20T11:21:41;20;18;
33431;PMS5003;35187;31.882;34.828;2023-07-20T11:24:12;20;20;
33431;PMS5003;35187;31.882;34.828;2023-07-20T11:26:42;19;19;
33431;PMS5003;35187;31.882;34.828;2023-07-20T11:29:11;18;18;
33431;PMS5003;35187;31.882;34.828;2023-07-20T11:31:42;18;18;
33431;PMS5003;35187;31.882;34.828;2023-07-20T11:34:12;17;17;
33431;PMS5003;35187;31.882;34.828;2023-07-20T11:36:41;16;16;
33431;PMS5003;35187;31.882;34.828;2023-07-20T11:39:12;17;15;
33431;PMS5003;35187;31.882;34.828;2023-07-20T11:41:43;19;17;
33431;PMS5003;35187;31.882;34.828;2023-07-20T11:44:15;17;17;
33431;PMS5003;35187;31.882;34.828;2023-07-20T11:46:44;16;16;
33431;PMS5003;35187;31.882;34.828;2023-07-20T11:49:13;17;17;
33431;PMS5003;35187;31.882;34.828;2023-07-20T11:51:42;16;15;
33431;PMS5003;35187;31.882;34.828;2023-07-20T11:54:11;16;15;
33431;PMS5003;35187;31.882;34.828;2023-07-20T11:56:41;15;14;
33431;PMS5003;35187;31.882;34.828;2023-07-20T11:59:10;17;16;
33431;PMS5003;35187;31.882;34.828;2023-07-20T12:01:40;16;16;
33431;PMS5003;35187;31.882;34.828;2023-07-20T12:04:09;14;14;
33431;PMS5003;35187;31.882;34.828;2023-07-20T12:06:38;16;15;
33431;PMS5003;35187;31.882;34.828;2023-07-20T12:09:07;18;16;
33431;PMS5003;35187;31.882;34.828;2023-07-20T12:11:43;17;16;
33431;PMS5003;35187;31.882;34.828;2023-07-20T12:14:12;15;15;
33431;PMS5003;35187;31.882;34.828;2023-07-20T12:16:41;16;15;
33431;PMS5003;35187;31.882;34.828;2023-07-20T12:19:11;18;17;
33431;PMS5003;35187;31.882;34.828;2023-07-20T12:21:41;20;19;
33431;PMS5003;35187;31.882;34.828;2023-07-20T12:24:10;18;16;
33431;PMS5003;35187;31.882;34.828;2023-07-20T12:26:39;16;16;
33431;PMS5003;35187;31.882;34.828;2023-07-20T12:29:08;16;14;
33431;PMS5003;35187;31.882;34.828;2023-07-20T12:31:37;18;16;
33431;PMS5003;35187;31.882;34.828;2023-07-20T12:34:05;16;15;
33431;PMS5003;35187;31.882;34.828;2023-07-20T12:36:34;16;16;
33431;PMS5003;35187;31.882;34.828;2023-07-20T12:39:03;18;17;
33431;PMS5003;35187;31.882;34.828;2023-07-20T12:41:32;17;16;
33431;PMS5003;35187;31.882;34.828;2023-07-20T12:44:00;15;14;
33431;PMS5003;35187;31.882;34.828;2023-07-20T12:46:29;18;16;
33431;PMS5003;35187;31.882;34.828;2023-07-20T12:48:58;20;19;
33431;PMS5003;35187;31.882;34.828;2023-07-20T12:51:29;18;17;
33431;PMS5003;35187;31.882;34.828;2023-07-20T12:53:58;15;15;
33431;PMS5003;35187;31.882;34.828;2023-07-20T12:56:27;20;18;
33431;PMS5003;35187;31.882;34.828;2023-07-20T12:58:56;17;17;
33431;PMS5003;35187;31.882;34.828;2023-07-20T13:01:24;16;16;
33431;PMS5003;35187;31.882;34.828;2023-07-20T13:03:53;16;16;
33431;PMS5003;35187;31.882;34.828;2023-07-20T13:06:22;15;15;
33431;PMS5003;35187;31.882;34.828;2023-07-20T13:08:52;16;15;
33431;PMS5003;35187;31.882;34.828;2023-07-20T13:11:21;13;13;
33431;PMS5003;35187;31.882;34.828;2023-07-20T13:13:50;14;14;
33431;PMS5003;35187;31.882;34.828;2023-07-20T13:16:19;16;16;
33431;PMS5003;35187;31.882;34.828;2023-07-20T13:18:48;17;17;
33431;PMS5003;35187;31.882;34.828;2023-07-20T13:21:17;17;17;
33431;PMS5003;35187;31.882;34.828;2023-07-20T13:23:46;14;14;
33431;PMS5003;35187;31.882;34.828;2023-07-20T13:26:14;16;15;
33431;PMS5003;35187;31.882;34.828;2023-07-20T13:28:44;14;14;
33431;PMS5003;35187;31.882;34.828;2023-07-20T13:31:12;17;16;
33431;PMS5003;35187;31.882;34.828;2023-07-20T13:33:41;14;13;
33431;PMS5003;35187;31.882;34.828;2023-07-20T13:36:10;17;15;
33431;PMS5003;35187;31.882;34.828;2023-07-20T13:38:39;18;17;
33431;PMS5003;35187;31.882;34.828;2023-07-20T13:41:08;15;14;
33431;PMS5003;35187;31.882;34.828;2023-07-20T13:43:36;17;16;
33431;PMS5003;35187;31.882;34.828;2023-07-20T13:46:05;15;14;
33431;PMS5003;35187;31.882;34.828;2023-07-20T13:48:34;14;13;
33431;PMS5003;35187;31.882;34.828;2023-07-20T13:51:03;12;12;
33431;PMS5003;35187;31.882;34.828;2023-07-20T13:53:32;11;11;
33431;PMS5003;35187;31.882;34.828;2023-07-20T13:56:01;12;11;
33431;PMS5003;35187;31.882;34.828;2023-07-20T13:58:30;11;11;
33431;PMS5003;35187;31.882;34.828;2023-07-20T14:01:00;13;13;
33431;PMS5003;35187;31.882;34.828;2023-07-20T14:03:29;18;18;
33431;PMS5003;35187;31.882;34.828;2023-07-20T14:05:57;26;25;
33431;PMS5003;35187;31.882;34.828;2023-07-20T14:08:26;12;11;
33431;PMS5003;35187;31.882;34.828;2023-07-20T14:10:55;11;10;
33431;PMS5003;35187;31.882;34.828;2023-07-20T14:13:24;12;11;
33431;PMS5003;35187;31.882;34.828;2023-07-20T14:15:53;8;7;
33431;PMS5003;35187;31.882;34.828;2023-07-20T14:18:21;8;8;
33431;PMS5003;35187;31.882;34.828;2023-07-20T14:20:50;8;8;
33431;PMS5003;35187;31.882;34.828;2023-07-20T14:23:19;9;8;
33431;PMS5003;35187;31.882;34.828;2023-07-20T14:25:48;7;7;
33431;PMS5003;35187;31.882;34.828;2023-07-20T14:28:17;10;9;
33431;PMS5003;35187;31.882;34.828;2023-07-20T14:30:46;8;8;
33431;PMS5003;35187;31.882;34.828;2023-07-20T14:33:15;7;7;
33431;PMS5003;35187;31.882;34.828;2023-07-20T14:35:43;10;9;
33431;PMS5003;35187;31.882;34.828;2023-07-20T14:38:12;7;7;
33431;PMS5003;35187;31.882;34.828;2023-07-20T14:40:42;9;9;
33431;PMS5003;35187;31.882;34.828;2023-07-20T14:43:11;8;7;
33431;PMS5003;35187;31.882;34.828;2023-07-20T14:45:40;7;7;
33431;PMS5003;35187;31.882;34.828;2023-07-20T14:48:14;6;5;
33431;PMS5003;35187;31.882;34.828;2023-07-20T14:50:43;5;5;
33431;PMS5003;35187;31.882;34.828;2023-07-20T14:53:13;5;5;
33431;PMS5003;35187;31.882;34.828;2023-07-20T14:55:42;7;6;
33431;PMS5003;35187;31.882;34.828;2023-07-20T14:58:11;6;6;
33431;PMS5003;35187;31.882;34.828;2023-07-20T15:00:40;7;7;
33431;PMS5003;35187;31.882;34.828;2023-07-20T15:03:11;7;6;
33431;PMS5003;35187;31.882;34.828;2023-07-20T15:05:40;9;8;
33431;PMS5003;35187;31.882;34.828;2023-07-20T15:08:09;7;6;
33431;PMS5003;35187;31.882;34.828;2023-07-20T15:10:43;7;7;
33431;PMS5003;35187;31.882;34.828;2023-07-20T15:13:12;10;7;
33431;PMS5003;35187;31.882;34.828;2023-07-20T15:15:41;8;8;
33431;PMS5003;35187;31.882;34.828;2023-07-20T15:18:10;7;6;
33431;PMS5003;35187;31.882;34.828;2023-07-20T15:20:38;6;6;
33431;PMS5003;35187;31.882;34.828;2023-07-20T15:23:07;5;5;
33431;PMS5003;35187;31.882;34.828;2023-07-20T15:25:36;7;6;
33431;PMS5003;35187;31.882;34.828;2023-07-20T15:28:05;7;6;
33431;PMS5003;35187;31.882;34.828;2023-07-20T15:30:34;7;7;
33431;PMS5003;35187;31.882;34.828;2023-07-20T15:33:02;9;8;
33431;PMS5003;35187;31.882;34.828;2023-07-20T15:35:31;6;6;
33431;PMS5003;35187;31.882;34.828;2023-07-20T15:38:01;5;4;
33431;PMS5003;35187;31.882;34.828;2023-07-20T15:40:29;5;5;
33431;PMS5003;35187;31.882;34.828;2023-07-20T15:42:58;6;5;
33431;PMS5003;35187;31.882;34.828;2023-07-20T15:45:27;8;7;
33431;PMS5003;35187;31.882;34.828;2023-07-20T15:47:56;8;7;
33431;PMS5003;35187;31.882;34.828;2023-07-20T15:50:25;9;8;
33431;PMS5003;35187;31.882;34.828;2023-07-20T15:52:54;8;8;
33431;PMS5003;35187;31.882;34.828;2023-07-20T15:55:23;9;8;
33431;PMS5003;35187;31.882;34.828;2023-07-20T15:57:52;10;8;
33431;PMS5003;35187;31.882;34.828;2023-07-20T16:00:21;8;8;
33431;PMS5003;35187;31.882;34.828;2023-07-20T16:02:50;9;9;
33431;PMS5003;35187;31.882;34.828;2023-07-20T16:05:18;11;11;
33431;PMS5003;35187;31.882;34.828;2023-07-20T16:07:47;22;22;
33431;PMS5003;35187;31.882;34.828;2023-07-20T16:10:16;26;25;
33431;PMS5003;35187;31.882;34.828;2023-07-20T16:12:45;26;24;
33431;PMS5003;35187;31.882;34.828;2023-07-20T16:15:14;26;25;
33431;PMS5003;35187;31.882;34.828;2023-07-20T16:17:43;25;25;
33431;PMS5003;35187;31.882;34.828;2023-07-20T16:20:12;28;28;
33431;PMS5003;35187;31.882;34.828;2023-07-20T16:22:40;13;13;
33431;PMS5003;35187;31.882;34.828;2023-07-20T16:25:09;17;17;
33431;PMS5003;35187;31.882;34.828;2023-07-20T16:27:38;19;16;
33431;PMS5003;35187;31.882;34.828;2023-07-20T16:30:07;15;15;
33431;PMS5003;35187;31.882;34.828;2023-07-20T16:32:36;21;19;